Time;durP1;ratioP1;P1;durP2;ratioP2;P2;SDS_P1;SDS_P2;PMS_P1;PMS_P2;Temp;Humidity;BMP_temperature;BMP_pressure;BME280_temperature;BME280_humidity;BME280_pressure;Samples;Min_cycle;Max_cycle;Signal;HPM_P1;HPM_P2
2022/06/25 00:02:03;;;;;;;4.07;3.67;;;19.10;99.90;;;;;;5050247;28;20303;-55
2022/06/25 00:07:16;;;;;;;4.10;3.20;;;19.10;99.90;;;;;;5059000;28;20544;-55
2022/06/25 00:09:44;;;;;;;3.07;2.73;;;19.00;99.90;;;;;;5058063;28;20247;-55
2022/06/25 00:14:56;;;;;;;5.83;3.03;;;19.00;99.90;;;;;;5058545;28;20206;-55
2022/06/25 00:17:23;;;;;;;5.53;3.00;;;19.10;99.90;;;;;;5051244;28;20347;-55
2022/06/25 00:19:49;;;;;;;4.90;3.00;;;19.00;99.90;;;;;;5043548;28;20199;-55
2022/06/25 00:22:16;;;;;;;3.10;2.80;;;19.00;99.90;;;;;;5048003;28;20232;-55
2022/06/25 00:24:43;;;;;;;3.13;2.57;;;19.00;99.90;;;;;;5047860;28;20196;-55
2022/06/25 00:27:10;;;;;;;2.90;2.40;;;19.10;99.90;;;;;;5044855;28;20569;-56
2022/06/25 00:29:37;;;;;;;6.90;2.50;;;19.10;99.90;;;;;;5051931;28;20739;-55
2022/06/25 00:32:04;;;;;;;3.97;2.63;;;19.10;99.90;;;;;;5042045;28;20200;-55
2022/06/25 00:34:31;;;;;;;5.10;2.37;;;18.90;99.90;;;;;;5048924;28;20199;-55
2022/06/25 00:36:58;;;;;;;3.17;2.20;;;19.00;99.90;;;;;;5056704;28;20306;-55
2022/06/25 00:39:25;;;;;;;2.60;2.40;;;18.90;99.90;;;;;;5056973;28;20315;-56
2022/06/25 00:41:52;;;;;;;3.60;2.47;;;18.90;99.90;;;;;;5051959;28;20348;-55
2022/06/25 00:44:18;;;;;;;3.07;2.20;;;18.80;99.90;;;;;;5043196;28;20262;-55
2022/06/25 00:46:47;;;;;;;4.33;2.43;;;18.80;99.90;;;;;;5050158;28;20294;-54
2022/06/25 00:49:14;;;;;;;2.80;2.57;;;18.70;99.90;;;;;;5055072;28;20231;-55
2022/06/25 00:51:46;;;;;;;4.13;2.10;;;18.90;99.90;;;;;;5048952;28;20280;-54
2022/06/25 00:54:16;;;;;;;2.63;2.43;;;18.70;99.90;;;;;;5052888;28;20208;-53
2022/06/25 00:56:47;;;;;;;2.87;2.30;;;18.70;99.90;;;;;;5051722;28;20208;-55
2022/06/25 00:59:16;;;;;;;4.33;2.50;;;18.70;99.90;;;;;;5052718;28;20757;-54
2022/06/25 01:01:43;;;;;;;5.53;2.40;;;18.60;99.90;;;;;;5051990;28;20281;-54
2022/06/25 01:04:10;;;;;;;2.93;2.23;;;18.60;99.90;;;;;;5054255;28;20674;-54
2022/06/25 01:06:37;;;;;;;2.77;2.47;;;18.50;99.90;;;;;;5058262;28;20254;-54
2022/06/25 01:09:04;;;;;;;3.07;2.77;;;18.60;99.90;;;;;;5055864;28;20207;-54
2022/06/25 01:11:31;;;;;;;3.10;2.40;;;18.50;99.90;;;;;;5050948;28;20277;-57
2022/06/25 01:13:58;;;;;;;2.90;2.37;;;18.40;99.90;;;;;;5053268;28;20209;-53
2022/06/25 01:16:25;;;;;;;3.17;2.97;;;18.40;99.90;;;;;;5051023;28;20325;-54
2022/06/25 01:18:53;;;;;;;3.97;2.43;;;18.50;99.90;;;;;;5050772;28;20642;-57
2022/06/25 01:21:20;;;;;;;3.00;2.70;;;18.50;99.90;;;;;;5054313;28;20531;-54
2022/06/25 01:23:47;;;;;;;4.23;2.70;;;18.40;99.90;;;;;;5054748;28;20197;-55
2022/06/25 01:26:14;;;;;;;3.60;3.00;;;18.40;99.90;;;;;;5053615;28;20219;-55
2022/06/25 01:28:41;;;;;;;4.33;2.67;;;18.30;99.90;;;;;;5054207;28;20210;-54
2022/06/25 01:31:08;;;;;;;2.77;2.33;;;18.30;99.90;;;;;;5049429;28;20286;-55
2022/06/25 01:33:35;;;;;;;5.27;2.33;;;18.30;99.90;;;;;;5052693;28;20281;-54
2022/06/25 01:36:02;;;;;;;4.57;3.00;;;18.40;99.90;;;;;;5053526;28;20317;-54
2022/06/25 01:38:28;;;;;;;3.43;2.70;;;18.40;99.90;;;;;;5055227;28;20225;-54
2022/06/25 01:40:55;;;;;;;2.77;2.40;;;18.30;99.90;;;;;;5051042;28;20204;-55
2022/06/25 01:43:22;;;;;;;5.67;2.90;;;18.30;99.90;;;;;;5049861;28;20237;-55
2022/06/25 01:45:49;;;;;;;3.80;2.27;;;18.40;99.90;;;;;;5047058;28;20189;-56
2022/06/25 01:48:16;;;;;;;3.70;2.30;;;18.30;99.90;;;;;;5052152;28;20225;-55
2022/06/25 01:50:43;;;;;;;3.57;2.40;;;18.30;99.90;;;;;;5050408;28;20486;-55
2022/06/25 01:53:10;;;;;;;7.50;2.97;;;18.30;99.90;;;;;;5048577;28;20209;-54
2022/06/25 01:55:37;;;;;;;3.97;2.40;;;18.20;99.90;;;;;;5048467;28;20272;-55
2022/06/25 01:58:04;;;;;;;3.70;2.10;;;18.30;99.90;;;;;;5048918;28;20557;-55
2022/06/25 02:00:31;;;;;;;3.13;2.80;;;18.30;99.90;;;;;;5046528;28;20391;-55
2022/06/25 02:02:59;;;;;;;3.73;3.10;;;18.20;99.90;;;;;;5041913;28;20205;-55
2022/06/25 02:08:16;;;;;;;4.60;2.53;;;18.20;99.90;;;;;;5052434;28;20258;-55
2022/06/25 02:10:45;;;;;;;5.07;2.40;;;18.20;99.90;;;;;;5050149;28;20232;-55
2022/06/25 02:13:12;;;;;;;4.10;2.70;;;18.10;99.90;;;;;;5050580;28;20350;-55
2022/06/25 02:15:40;;;;;;;5.03;2.80;;;18.20;99.90;;;;;;5052258;28;20208;-55
2022/06/25 02:18:08;;;;;;;4.57;2.37;;;18.10;99.90;;;;;;5050278;28;20213;-55
2022/06/25 02:20:34;;;;;;;7.30;2.40;;;18.10;99.90;;;;;;5056787;28;20214;-55
2022/06/25 02:23:01;;;;;;;4.30;2.40;;;18.30;99.90;;;;;;5050677;28;20240;-55
2022/06/25 02:25:28;;;;;;;2.30;2.10;;;18.20;99.90;;;;;;5054535;28;20283;-55
2022/06/25 02:27:55;;;;;;;2.77;2.30;;;18.20;99.90;;;;;;5047650;28;20208;-55
2022/06/25 02:30:22;;;;;;;3.33;2.50;;;18.30;99.90;;;;;;5036204;28;20324;-52
2022/06/25 02:32:49;;;;;;;2.80;2.40;;;18.30;99.90;;;;;;5049771;28;20253;-55
2022/06/25 02:35:16;;;;;;;5.20;2.63;;;18.20;99.90;;;;;;5051362;28;20803;-54
2022/06/25 02:37:43;;;;;;;2.83;2.10;;;18.20;99.90;;;;;;5051233;28;20259;-55
2022/06/25 02:40:11;;;;;;;2.53;2.30;;;18.30;99.90;;;;;;5052036;28;20197;-55
2022/06/25 02:42:39;;;;;;;2.50;2.30;;;18.20;99.90;;;;;;5049333;28;20621;-54
2022/06/25 02:45:08;;;;;;;2.73;2.10;;;18.00;99.90;;;;;;5049206;28;20246;-54
2022/06/25 02:47:35;;;;;;;2.13;1.93;;;18.10;99.90;;;;;;5047816;28;20308;-54
2022/06/25 02:50:04;;;;;;;3.37;2.53;;;18.10;99.90;;;;;;5045848;28;20563;-54
2022/06/25 02:52:30;;;;;;;5.70;2.60;;;18.20;99.90;;;;;;5049326;28;20668;-54
2022/06/25 02:54:57;;;;;;;2.30;2.10;;;18.20;99.90;;;;;;5053843;28;20213;-54
2022/06/25 03:00:10;;;;;;;4.90;2.33;;;18.10;99.90;;;;;;5052001;28;20744;-55
2022/06/25 03:02:37;;;;;;;2.23;2.03;;;18.00;99.90;;;;;;5044873;28;20198;-55
2022/06/25 03:05:04;;;;;;;7.23;2.40;;;18.10;99.90;;;;;;5049828;28;20250;-55
2022/06/25 03:07:32;;;;;;;6.67;2.40;;;18.10;99.90;;;;;;5047910;28;20202;-54
2022/06/25 03:10:00;;;;;;;2.30;2.10;;;18.20;99.90;;;;;;5054323;28;20200;-55
2022/06/25 03:12:27;;;;;;;2.93;2.30;;;18.20;99.90;;;;;;5051185;28;20344;-54
2022/06/25 03:14:53;;;;;;;3.00;2.30;;;18.20;99.90;;;;;;5056605;28;20629;-55
2022/06/25 03:17:20;;;;;;;2.50;2.30;;;18.10;99.90;;;;;;5049536;28;20217;-55
2022/06/25 03:19:47;;;;;;;3.63;2.73;;;18.20;99.90;;;;;;5051789;28;20275;-55
2022/06/25 03:22:14;;;;;;;4.80;2.07;;;18.20;99.90;;;;;;5050186;28;20194;-54
2022/06/25 03:24:41;;;;;;;3.97;2.50;;;18.10;99.90;;;;;;5053905;28;20377;-55
2022/06/25 03:27:08;;;;;;;3.90;2.30;;;18.20;99.90;;;;;;5054818;28;20202;-54
2022/06/25 03:29:34;;;;;;;3.33;2.43;;;18.20;99.90;;;;;;5052762;28;20205;-55
2022/06/25 03:32:01;;;;;;;4.53;2.23;;;18.10;99.90;;;;;;5048646;28;20214;-55
2022/06/25 03:34:28;;;;;;;4.77;2.20;;;18.10;99.90;;;;;;5054229;28;20233;-54
2022/06/25 03:36:55;;;;;;;4.50;2.37;;;18.00;99.90;;;;;;5056312;28;20311;-54
2022/06/25 03:39:22;;;;;;;4.00;2.47;;;18.00;99.90;;;;;;5052898;28;20690;-54
2022/06/25 03:41:48;;;;;;;3.27;2.50;;;18.10;99.90;;;;;;5054537;28;20213;-55
2022/06/25 03:44:15;;;;;;;3.43;2.80;;;18.10;99.90;;;;;;5055252;28;20230;-54
2022/06/25 03:46:42;;;;;;;2.87;2.40;;;18.00;99.90;;;;;;5046458;28;20289;-54
2022/06/25 03:49:09;;;;;;;2.67;2.37;;;18.00;99.90;;;;;;5053865;28;20238;-54
2022/06/25 03:51:36;;;;;;;5.13;2.50;;;18.10;99.90;;;;;;5052845;28;20603;-54
2022/06/25 03:54:04;;;;;;;3.10;2.13;;;18.20;99.90;;;;;;5055773;28;20564;-55
2022/06/25 03:56:30;;;;;;;8.00;2.60;;;18.20;99.90;;;;;;5043254;28;20631;-54
2022/06/25 03:58:58;;;;;;;5.57;2.63;;;18.20;99.90;;;;;;5052136;28;20305;-55
2022/06/25 04:01:24;;;;;;;5.23;2.90;;;18.20;99.90;;;;;;5050581;28;20196;-57
2022/06/25 04:03:52;;;;;;;2.80;2.30;;;18.20;99.90;;;;;;5038115;28;20206;-55
2022/06/25 04:06:19;;;;;;;3.97;2.50;;;18.10;99.90;;;;;;5051034;28;20214;-54
2022/06/25 04:08:45;;;;;;;3.10;2.47;;;18.10;99.90;;;;;;5054099;28;20230;-54
2022/06/25 04:11:12;;;;;;;5.57;2.87;;;18.10;99.90;;;;;;5046345;28;20222;-54
2022/06/25 04:13:39;;;;;;;4.27;3.20;;;18.00;99.90;;;;;;5053948;28;20262;-55
2022/06/25 04:16:06;;;;;;;3.30;2.63;;;18.10;99.90;;;;;;5049400;28;20195;-54
2022/06/25 04:18:33;;;;;;;5.17;2.50;;;18.10;99.90;;;;;;5051812;28;20623;-54
2022/06/25 04:21:00;;;;;;;9.43;2.77;;;18.10;99.90;;;;;;5046345;28;20209;-54
2022/06/25 04:23:27;;;;;;;3.77;2.83;;;18.20;99.90;;;;;;5051020;28;20678;-57
2022/06/25 04:25:55;;;;;;;3.43;2.70;;;18.10;99.90;;;;;;5051107;28;20228;-53
2022/06/25 04:31:07;;;;;;;3.40;2.70;;;18.10;99.90;;;;;;5048044;28;20217;-54
2022/06/25 04:33:34;;;;;;;3.63;2.83;;;18.10;99.90;;;;;;5054169;28;20254;-55
2022/06/25 04:36:01;;;;;;;6.20;2.87;;;18.10;99.90;;;;;;5051160;28;20202;-54
2022/06/25 04:38:28;;;;;;;4.93;3.43;;;18.20;99.90;;;;;;5037823;28;20689;-55
2022/06/25 04:40:55;;;;;;;5.67;3.10;;;18.30;99.90;;;;;;5044286;28;20257;-54
2022/06/25 04:43:21;;;;;;;5.73;3.40;;;18.10;99.90;;;;;;5049421;28;20305;-54
2022/06/25 04:45:48;;;;;;;5.80;3.50;;;18.20;99.90;;;;;;5049002;28;20628;-54
2022/06/25 04:48:15;;;;;;;4.00;3.40;;;18.20;99.90;;;;;;5050715;28;20225;-54
2022/06/25 04:50:43;;;;;;;4.30;3.27;;;18.30;99.90;;;;;;5053208;28;20209;-55
2022/06/25 04:53:12;;;;;;;8.47;3.23;;;18.40;99.90;;;;;;5050372;28;20200;-54
2022/06/25 04:55:39;;;;;;;3.60;3.30;;;18.40;99.90;;;;;;5048095;28;20203;-54
2022/06/25 04:58:05;;;;;;;4.27;3.40;;;18.30;99.90;;;;;;5042468;28;20572;-54
2022/06/25 05:00:32;;;;;;;5.40;3.33;;;18.50;99.90;;;;;;5047928;28;20233;-55
2022/06/25 05:03:06;;;;;;;5.53;3.13;;;18.50;99.90;;;;;;5051259;28;20199;-54
2022/06/25 05:05:33;;;;;;;4.70;3.07;;;18.50;99.90;;;;;;5053978;28;20641;-55
2022/06/25 05:08:00;;;;;;;5.43;3.27;;;18.40;99.90;;;;;;5053378;28;20704;-55
2022/06/25 05:10:27;;;;;;;6.30;3.17;;;18.50;99.90;;;;;;5055123;28;20248;-54
2022/06/25 05:13:12;;;;;;;6.10;3.67;;;18.50;99.90;;;;;;5049981;28;20204;-55
2022/06/25 05:15:41;;;;;;;5.27;3.30;;;18.50;99.90;;;;;;5051859;28;20242;-57
2022/06/25 05:18:08;;;;;;;3.73;3.00;;;18.60;99.90;;;;;;5049133;28;20220;-55
2022/06/25 05:20:40;;;;;;;4.97;3.40;;;18.50;99.90;;;;;;5052932;28;20198;-55
2022/06/25 05:23:08;;;;;;;5.03;2.90;;;18.60;99.90;;;;;;5051795;28;20248;-54
2022/06/25 05:25:35;;;;;;;3.87;3.47;;;18.60;99.90;;;;;;5054862;28;20622;-54
2022/06/25 05:28:03;;;;;;;5.10;3.40;;;18.70;99.90;;;;;;5050768;28;20236;-54
2022/06/25 05:30:31;;;;;;;3.13;2.83;;;18.80;99.90;;;;;;5050407;28;20215;-54
2022/06/25 05:32:58;;;;;;;4.33;3.07;;;18.90;99.90;;;;;;5049120;28;20326;-54
2022/06/25 05:35:26;;;;;;;6.90;3.07;;;19.10;99.90;;;;;;5051723;28;20201;-54
2022/06/25 05:37:53;;;;;;;3.23;2.67;;;19.00;99.90;;;;;;5049902;28;20233;-54
2022/06/25 05:40:20;;;;;;;4.70;2.80;;;19.10;99.90;;;;;;5052541;28;20297;-54
2022/06/25 05:42:47;;;;;;;4.63;3.10;;;19.20;99.90;;;;;;5045708;28;20213;-54
2022/06/25 05:45:14;;;;;;;3.97;3.40;;;19.30;99.90;;;;;;5049022;28;20239;-54
2022/06/25 05:47:41;;;;;;;2.97;2.63;;;19.50;99.90;;;;;;5047793;28;20241;-54
2022/06/25 05:50:08;;;;;;;3.37;2.90;;;19.40;99.90;;;;;;5050392;28;20776;-54
2022/06/25 05:52:36;;;;;;;3.90;2.30;;;19.40;99.90;;;;;;5049024;28;20210;-54
2022/06/25 05:55:04;;;;;;;4.57;2.53;;;19.40;99.90;;;;;;5055114;28;20689;-54
2022/06/25 05:57:30;;;;;;;5.87;3.07;;;19.40;99.90;;;;;;5050266;28;20224;-54
2022/06/25 05:59:58;;;;;;;4.73;2.80;;;19.50;99.90;;;;;;5047625;28;20238;-55
2022/06/25 06:02:26;;;;;;;5.83;2.97;;;19.40;99.90;;;;;;5044347;28;20276;-55
2022/06/25 06:04:54;;;;;;;3.63;2.50;;;19.50;99.90;;;;;;5044081;28;20205;-54
2022/06/25 06:07:21;;;;;;;5.80;3.47;;;19.70;99.90;;;;;;5049509;28;20215;-54
2022/06/25 06:09:48;;;;;;;3.03;2.70;;;19.70;99.90;;;;;;5052302;28;20204;-54
2022/06/25 06:12:15;;;;;;;3.97;2.10;;;19.70;99.90;;;;;;5048752;28;20238;-55
2022/06/25 06:14:42;;;;;;;3.00;2.30;;;19.70;99.90;;;;;;5048321;28;20238;-54
2022/06/25 06:17:09;;;;;;;6.80;2.90;;;19.80;99.90;;;;;;5046884;28;20699;-55
2022/06/25 06:19:36;;;;;;;4.20;2.60;;;19.70;99.90;;;;;;5049735;28;20195;-54
2022/06/25 06:22:04;;;;;;;3.73;2.37;;;19.70;99.90;;;;;;5051959;28;20201;-55
2022/06/25 06:24:30;;;;;;;6.07;2.80;;;19.60;99.90;;;;;;5050290;28;20211;-55
2022/06/25 06:26:57;;;;;;;3.73;2.70;;;19.60;99.90;;;;;;5050101;28;20211;-55
2022/06/25 06:29:24;;;;;;;4.13;2.10;;;19.70;99.90;;;;;;5049195;28;20385;-55
2022/06/25 06:31:52;;;;;;;3.27;2.37;;;20.00;99.90;;;;;;5033395;28;20628;-54
2022/06/25 06:34:19;;;;;;;2.83;2.00;;;20.00;99.90;;;;;;5053376;28;20837;-55
2022/06/25 06:36:46;;;;;;;2.43;2.20;;;19.80;99.90;;;;;;5048226;28;20714;-54
2022/06/25 06:39:13;;;;;;;3.03;2.17;;;19.80;99.90;;;;;;5051327;28;20680;-55
2022/06/25 06:41:40;;;;;;;3.50;2.87;;;19.70;99.90;;;;;;5050253;28;20723;-54
2022/06/25 06:44:07;;;;;;;3.70;3.00;;;19.60;99.90;;;;;;5052797;28;20565;-54
2022/06/25 06:46:39;;;;;;;3.80;2.73;;;19.40;99.90;;;;;;5049953;28;20203;-54
2022/06/25 06:49:06;;;;;;;4.53;2.80;;;19.60;99.90;;;;;;5056925;28;20226;-55
2022/06/25 06:51:33;;;;;;;8.33;2.93;;;19.90;99.90;;;;;;5051200;28;20239;-54
2022/06/25 06:53:59;;;;;;;3.27;2.70;;;20.00;99.90;;;;;;5059202;28;20700;-54
2022/06/25 06:56:26;;;;;;;3.20;2.53;;;20.00;99.90;;;;;;5056659;28;20537;-55
2022/06/25 06:58:53;;;;;;;4.77;2.83;;;20.10;99.90;;;;;;5054446;28;20733;-54
2022/06/25 07:01:21;;;;;;;2.93;2.53;;;20.30;99.90;;;;;;5047851;28;20230;-55
2022/06/25 07:03:48;;;;;;;3.63;2.80;;;20.60;99.90;;;;;;5056828;28;20202;-55
2022/06/25 07:06:15;;;;;;;6.47;2.63;;;20.70;99.90;;;;;;5056826;28;20410;-55
2022/06/25 07:08:41;;;;;;;6.00;2.67;;;20.60;99.90;;;;;;5058692;28;20627;-55
2022/06/25 07:13:55;;;;;;;3.90;2.80;;;20.40;99.90;;;;;;5054165;28;20608;-56
2022/06/25 07:16:22;;;;;;;6.03;2.73;;;20.60;99.90;;;;;;5054302;28;20223;-55
2022/06/25 07:18:50;;;;;;;5.37;2.90;;;20.70;99.90;;;;;;5054899;28;20216;-56
2022/06/25 07:21:17;;;;;;;5.03;2.70;;;20.70;99.90;;;;;;5055869;28;20624;-55
2022/06/25 07:23:44;;;;;;;3.90;2.80;;;20.70;99.90;;;;;;5055615;28;20580;-55
2022/06/25 07:26:11;;;;;;;3.37;2.73;;;20.70;99.90;;;;;;5054899;28;20223;-54
2022/06/25 07:28:38;;;;;;;6.97;3.10;;;20.60;99.90;;;;;;5052769;28;20207;-54
2022/06/25 07:31:04;;;;;;;4.30;2.83;;;20.70;99.90;;;;;;5052440;28;20238;-54
2022/06/25 07:33:31;;;;;;;4.18;2.60;;;20.70;99.90;;;;;;5056252;28;20462;-54
2022/06/25 07:35:59;;;;;;;3.90;2.30;;;20.80;99.90;;;;;;5056621;28;20646;-54
2022/06/25 07:38:25;;;;;;;3.73;2.40;;;20.90;99.90;;;;;;5058780;28;20682;-54
2022/06/25 07:40:52;;;;;;;2.17;1.97;;;20.90;99.90;;;;;;5050215;28;20199;-54
2022/06/25 07:43:19;;;;;;;2.57;2.00;;;21.00;99.90;;;;;;5057649;28;20564;-54
2022/06/25 07:45:46;;;;;;;3.90;2.07;;;21.10;99.90;;;;;;5054589;28;20594;-54
2022/06/25 07:48:13;;;;;;;3.03;2.13;;;21.80;99.90;;;;;;5052428;28;20484;-54
2022/06/25 07:53:25;;;;;;;6.30;1.87;;;21.90;99.90;;;;;;5056400;28;20611;-54
2022/06/25 07:55:53;;;;;;;2.07;1.60;;;21.40;99.90;;;;;;5055772;28;20651;-54
2022/06/25 07:58:19;;;;;;;4.13;1.53;;;21.20;99.90;;;;;;5053683;28;20215;-54
2022/06/25 08:00:46;;;;;;;3.23;2.00;;;21.20;99.90;;;;;;5048187;28;20229;-52
2022/06/25 08:03:13;;;;;;;2.83;1.33;;;21.30;99.90;;;;;;5046925;28;20327;-54
2022/06/25 08:05:40;;;;;;;2.67;1.80;;;21.30;99.90;;;;;;5046914;28;20191;-54
2022/06/25 08:08:07;;;;;;;2.33;1.60;;;21.10;99.90;;;;;;5048613;28;20288;-54
2022/06/25 08:10:34;;;;;;;3.27;1.77;;;21.00;99.90;;;;;;5051628;28;20243;-54
2022/06/25 08:13:02;;;;;;;3.90;1.90;;;20.90;99.90;;;;;;5044131;28;20214;-55
2022/06/25 08:15:29;;;;;;;4.80;2.00;;;21.20;99.90;;;;;;5041472;28;20716;-54
2022/06/25 08:17:56;;;;;;;3.53;2.07;;;20.90;99.90;;;;;;5054338;28;20271;-54
2022/06/25 08:20:24;;;;;;;3.07;1.80;;;20.90;99.90;;;;;;5050732;28;20545;-54
2022/06/25 08:22:51;;;;;;;2.70;1.67;;;20.90;99.90;;;;;;5048109;28;20208;-54
2022/06/25 08:25:18;;;;;;;3.30;1.80;;;20.80;99.90;;;;;;5055347;28;20297;-53
2022/06/25 08:27:52;;;;;;;4.63;2.43;;;20.80;99.90;;;;;;5046595;28;20548;-54
2022/06/25 08:30:20;;;;;;;2.53;1.67;;;20.80;99.90;;;;;;5046753;28;20230;-54
2022/06/25 08:32:47;;;;;;;5.77;2.07;;;21.10;99.90;;;;;;5049640;28;20685;-54
2022/06/25 08:35:15;;;;;;;2.93;2.00;;;22.40;99.90;;;;;;5046637;28;20243;-52
2022/06/25 08:37:47;;;;;;;2.83;2.00;;;22.20;99.90;;;;;;5029074;28;20701;-54
2022/06/25 08:40:19;;;;;;;3.37;1.63;;;22.90;99.90;;;;;;5030857;28;20253;-54
2022/06/25 08:42:48;;;;;;;3.53;2.00;;;22.40;99.90;;;;;;5030505;28;20472;-55
2022/06/25 08:45:17;;;;;;;5.50;1.73;;;22.60;99.90;;;;;;5055496;28;20617;-55
2022/06/25 08:47:48;;;;;;;2.80;1.73;;;22.20;99.90;;;;;;5047932;28;20899;-53
2022/06/25 08:50:17;;;;;;;2.20;1.60;;;21.60;99.90;;;;;;5045774;28;20245;-54
2022/06/25 08:52:54;;;;;;;2.60;1.57;;;22.10;99.90;;;;;;5047739;28;20196;-55
2022/06/25 08:55:38;;;;;;;5.37;1.53;;;22.90;99.90;;;;;;5042853;28;20638;-55
2022/06/25 08:58:06;;;;;;;3.27;1.20;;;24.00;99.90;;;;;;5053790;28;20711;-60
2022/06/25 09:00:36;;;;;;;3.07;1.33;;;23.90;99.90;;;;;;5054034;28;20237;-55
2022/06/25 09:03:04;;;;;;;2.07;1.27;;;23.60;99.90;;;;;;5051633;28;20204;-54
2022/06/25 09:05:36;;;;;;;3.17;1.60;;;24.00;99.90;;;;;;5055793;28;20237;-54
2022/06/25 09:08:05;;;;;;;3.33;1.67;;;23.80;99.90;;;;;;5055689;28;20572;-54
2022/06/25 09:10:33;;;;;;;3.77;1.33;;;23.80;99.90;;;;;;5054638;28;20235;-54
2022/06/25 09:13:03;;;;;;;3.00;1.43;;;23.10;99.90;;;;;;5047955;28;20202;-55
2022/06/25 09:15:33;;;;;;;1.90;1.50;;;23.00;99.90;;;;;;5054111;28;20208;-55
2022/06/25 09:18:07;;;;;;;1.80;1.30;;;22.50;99.90;;;;;;5055803;28;20217;-55
2022/06/25 09:20:34;;;;;;;2.60;1.30;;;22.50;99.90;;;;;;5053057;28;20227;-55
2022/06/25 09:23:06;;;;;;;3.47;1.53;;;22.80;99.90;;;;;;5051603;28;20231;-55
2022/06/25 09:25:34;;;;;;;2.07;0.93;;;22.70;99.90;;;;;;5053855;28;20261;-54
2022/06/25 09:28:01;;;;;;;1.67;1.20;;;22.40;99.90;;;;;;5054383;28;20246;-55
2022/06/25 09:30:31;;;;;;;2.47;1.10;;;22.30;99.90;;;;;;5054238;28;20231;-54
2022/06/25 09:33:00;;;;;;;1.90;1.40;;;22.40;99.90;;;;;;5053857;28;20564;-55
2022/06/25 09:35:34;;;;;;;2.20;1.23;;;22.30;99.90;;;;;;5055601;28;20266;-56
2022/06/25 09:38:01;;;;;;;1.23;1.13;;;22.10;99.90;;;;;;5054793;28;20254;-54
2022/06/25 09:40:29;;;;;;;1.83;1.00;;;22.30;99.90;;;;;;5052293;28;20261;-54
2022/06/25 09:42:57;;;;;;;1.30;1.20;;;22.40;99.90;;;;;;5046376;28;20246;-54
2022/06/25 09:45:25;;;;;;;4.60;1.30;;;22.50;99.90;;;;;;5054172;28;20231;-54
2022/06/25 09:47:55;;;;;;;1.90;1.03;;;22.30;99.90;;;;;;5054734;28;20623;-55
2022/06/25 09:50:22;;;;;;;2.10;1.50;;;22.30;99.90;;;;;;5067003;28;20201;-54
2022/06/25 09:52:59;;;;;;;1.90;1.20;;;22.50;99.90;;;;;;5054866;28;20198;-55
2022/06/25 09:55:28;;;;;;;2.27;1.10;;;23.20;99.90;;;;;;5055200;28;20626;-54
2022/06/25 09:57:56;;;;;;;1.70;1.03;;;23.30;99.90;;;;;;5051132;28;20203;-55
2022/06/25 10:00:23;;;;;;;2.27;1.20;;;22.90;99.90;;;;;;5053079;28;20242;-55
2022/06/25 10:02:51;;;;;;;4.13;1.30;;;22.80;99.90;;;;;;5051990;28;20201;-55
2022/06/25 10:05:23;;;;;;;2.23;1.03;;;22.90;99.90;;;;;;5054345;28;20233;-54
2022/06/25 10:08:01;;;;;;;11.53;2.93;;;22.70;99.90;;;;;;5055364;28;20302;-55
2022/06/25 10:10:42;;;;;;;1.60;1.00;;;22.90;99.90;;;;;;5053912;28;20239;-55
2022/06/25 10:13:09;;;;;;;3.00;1.30;;;23.00;99.90;;;;;;5052978;28;20211;-54
2022/06/25 10:15:37;;;;;;;1.53;1.20;;;22.30;99.90;;;;;;5051742;28;20206;-54
2022/06/25 10:18:07;;;;;;;3.03;1.37;;;22.50;99.90;;;;;;5053018;28;20203;-55
2022/06/25 10:20:34;;;;;;;3.90;1.30;;;22.50;99.90;;;;;;5055112;28;20230;-55
2022/06/25 10:23:03;;;;;;;1.93;1.20;;;22.80;99.90;;;;;;5051835;28;20198;-55
2022/06/25 10:25:30;;;;;;;5.00;1.30;;;22.50;99.90;;;;;;5055829;28;20383;-55
2022/06/25 10:28:10;;;;;;;2.03;1.10;;;22.60;99.90;;;;;;5052199;28;20289;-55
2022/06/25 10:30:57;;;;;;;2.27;1.20;;;22.70;99.90;;;;;;5054766;28;20234;-55
2022/06/25 10:33:29;;;;;;;3.00;1.30;;;22.80;99.90;;;;;;5054509;28;20262;-55
2022/06/25 10:35:58;;;;;;;1.23;1.10;;;23.80;99.90;;;;;;5054611;28;20238;-56
2022/06/25 10:38:26;;;;;;;2.63;1.00;;;23.80;99.90;;;;;;5055360;28;20219;-55
2022/06/25 10:40:57;;;;;;;1.20;1.10;;;23.60;99.90;;;;;;5053570;28;20311;-55
2022/06/25 10:43:34;;;;;;;4.10;1.50;;;23.60;99.90;;;;;;5054358;28;20201;-60
2022/06/25 10:46:19;;;;;;;3.27;1.23;;;23.80;99.90;;;;;;5051371;28;20196;-55
2022/06/25 10:48:50;;;;;;;4.60;1.10;;;24.20;99.90;;;;;;5055776;28;20225;-55
2022/06/25 10:51:47;;;;;;;4.43;1.30;;;24.10;99.90;;;;;;5054767;28;20665;-55
2022/06/25 10:54:14;;;;;;;1.47;1.37;;;23.40;99.90;;;;;;5034673;28;20209;-55
2022/06/25 10:56:48;;;;;;;3.40;1.30;;;23.40;99.90;;;;;;5045361;28;20611;-55
2022/06/25 10:59:34;;;;;;;1.30;1.17;;;23.60;99.90;;;;;;5046106;28;20235;-55
2022/06/25 11:02:06;;;;;;;1.63;1.00;;;23.90;99.90;;;;;;5042248;28;20212;-55
2022/06/25 11:04:35;;;;;;;3.57;1.23;;;24.00;99.90;;;;;;5046406;28;20616;-55
2022/06/25 11:07:20;;;;;;;4.90;1.63;;;23.70;99.90;;;;;;5045544;28;20209;-55
2022/06/25 11:09:54;;;;;;;1.17;1.07;;;23.80;99.90;;;;;;5049351;28;20240;-55
2022/06/25 11:12:23;;;;;;;2.60;1.20;;;24.10;99.90;;;;;;5042570;28;20202;-55
2022/06/25 11:15:07;;;;;;;2.90;0.97;;;24.20;99.90;;;;;;5041728;28;20285;-54
2022/06/25 11:17:35;;;;;;;1.53;0.90;;;23.60;99.90;;;;;;5037849;28;20299;-55
2022/06/25 11:20:12;;;;;;;1.47;1.10;;;23.50;99.90;;;;;;5037376;28;20331;-55
2022/06/25 11:22:49;;;;;;;1.83;0.80;;;24.60;91.10;;;;;;5043344;28;20207;-55
2022/06/25 11:30:49;;;;;;;2.13;1.20;;;24.80;99.90;;;;;;5046401;28;20303;-55
2022/06/25 11:33:16;;;;;;;2.20;1.10;;;24.70;99.90;;;;;;5044360;28;20199;-55
2022/06/25 11:35:46;;;;;;;2.20;1.17;;;24.50;99.90;;;;;;5049068;28;20210;-55
2022/06/25 11:38:15;;;;;;;1.07;0.97;;;25.00;89.90;;;;;;5046380;28;20214;-55
2022/06/25 11:40:42;;;;;;;2.10;1.03;;;25.20;77.30;;;;;;5056399;28;20292;-55
2022/06/25 11:43:09;;;;;;;2.33;1.47;;;25.20;37.00;;;;;;5046698;28;20628;-54
2022/06/25 11:45:54;;;;;;;1.70;1.10;;;25.50;54.10;;;;;;5048013;28;20272;-55
2022/06/25 11:48:26;;;;;;;4.83;1.90;;;25.30;56.40;;;;;;5045400;28;20231;-55
2022/06/25 11:51:00;;;;;;;2.67;0.90;;;24.80;88.90;;;;;;5047096;28;20800;-54
2022/06/25 11:53:35;;;;;;;1.20;0.83;;;25.30;97.90;;;;;;5053086;28;20207;-55
2022/06/25 11:56:04;;;;;;;1.13;1.00;;;25.60;88.30;;;;;;5047741;28;20268;-55
2022/06/25 11:58:33;;;;;;;5.20;1.20;;;25.10;91.30;;;;;;5040203;28;20383;-55
2022/06/25 12:01:04;;;;;;;1.13;0.87;;;24.90;99.90;;;;;;5045645;28;20719;-55
2022/06/25 12:03:32;;;;;;;1.57;1.10;;;25.00;87.70;;;;;;5057096;28;20651;-55
2022/06/25 12:06:01;;;;;;;2.57;1.40;;;24.60;99.90;;;;;;5057728;28;20204;-55
2022/06/25 12:08:29;;;;;;;2.53;1.10;;;24.50;99.90;;;;;;5058412;28;20743;-55
2022/06/25 12:11:00;;;;;;;1.63;1.03;;;24.40;99.90;;;;;;5057103;28;20209;-55
2022/06/25 12:13:28;;;;;;;1.87;1.70;;;23.90;99.90;;;;;;5054990;28;20207;-55
2022/06/25 12:16:02;;;;;;;2.80;1.70;;;23.70;99.90;;;;;;5055113;28;20286;-58
2022/06/25 12:18:37;;;;;;;1.90;1.60;;;23.70;99.90;;;;;;5057174;28;20206;-55
2022/06/25 12:21:05;;;;;;;3.13;1.70;;;23.70;99.90;;;;;;5057458;28;20295;-55
2022/06/25 12:23:54;;;;;;;2.50;1.50;;;23.50;99.90;;;;;;5058110;28;20305;-56
2022/06/25 12:26:31;;;;;;;1.80;1.40;;;23.30;99.90;;;;;;5058555;28;20196;-55
2022/06/25 12:29:09;;;;;;;2.27;1.90;;;23.20;99.90;;;;;;5059043;28;20619;-57
2022/06/25 12:31:37;;;;;;;3.87;2.07;;;22.80;99.90;;;;;;5054918;28;20236;-55
2022/06/25 12:34:05;;;;;;;4.73;1.97;;;22.80;99.90;;;;;;5057864;28;20215;-55
2022/06/25 12:36:39;;;;;;;4.60;2.30;;;22.90;99.90;;;;;;5059430;28;20690;-54
2022/06/25 12:39:33;;;;;;;2.77;2.03;;;23.00;99.90;;;;;;5055739;28;20301;-54
2022/06/25 12:42:13;;;;;;;3.03;2.23;;;22.90;99.90;;;;;;5056026;28;20769;-57
2022/06/25 12:44:42;;;;;;;4.20;2.67;;;22.80;99.90;;;;;;5040700;28;20244;-55
2022/06/25 12:47:11;;;;;;;2.50;2.10;;;22.90;99.90;;;;;;5054772;28;20241;-57
2022/06/25 12:49:52;;;;;;;3.73;2.33;;;23.00;99.90;;;;;;5057944;28;20208;-54
2022/06/25 12:52:44;;;;;;;2.80;2.37;;;23.00;99.90;;;;;;5057147;28;20198;-55
2022/06/25 12:55:18;;;;;;;3.03;1.83;;;23.10;99.90;;;;;;5058718;28;20626;-55
2022/06/25 12:57:52;;;;;;;2.67;1.70;;;24.60;99.90;;;;;;5052594;28;20214;-55
2022/06/25 13:00:24;;;;;;;3.13;1.77;;;24.00;99.90;;;;;;5058201;28;20265;-55
2022/06/25 13:02:51;;;;;;;3.40;2.60;;;23.90;99.90;;;;;;5054066;28;20229;-55
2022/06/25 13:05:20;;;;;;;2.87;2.20;;;23.70;99.90;;;;;;5056734;28;20887;-55
2022/06/25 13:07:47;;;;;;;4.20;2.20;;;23.50;99.90;;;;;;5057959;28;20199;-55
2022/06/25 13:10:15;;;;;;;2.90;1.40;;;23.40;99.90;;;;;;5056560;28;20246;-55
2022/06/25 13:12:43;;;;;;;2.27;1.60;;;23.40;99.90;;;;;;5053274;28;20225;-55
2022/06/25 13:15:11;;;;;;;3.77;2.37;;;23.40;99.90;;;;;;5040610;28;20568;-55
2022/06/25 13:17:39;;;;;;;1.47;1.37;;;23.50;99.90;;;;;;5068553;28;20288;-55
2022/06/25 13:20:06;;;;;;;2.03;1.70;;;24.00;99.90;;;;;;5055648;28;20596;-55
2022/06/25 13:22:34;;;;;;;2.53;1.27;;;23.80;99.90;;;;;;5056173;28;20446;-57